Time;durP1;ratioP1;P1;durP2;ratioP2;P2;SDS_P1;SDS_P2;PMS_P1;PMS_P2;Temp;Humidity;BMP_temperature;BMP_pressure;BME280_temperature;BME280_humidity;BME280_pressure;Samples;Min_cycle;Max_cycle;Signal;HPM_P1;HPM_P2
2023/09/12 00:01:06;;;;;;;;;;;21.00;99.90;;;;;;5002443;28;19932;-65
2023/09/12 00:03:32;;;;;;;;;;;21.00;99.90;;;;;;4998780;28;19920;-66
2023/09/12 00:05:58;;;;;;;;;;;21.00;99.90;;;;;;5002409;28;19909;-65
2023/09/12 00:08:24;;;;;;;;;;;21.00;99.90;;;;;;4999610;28;19909;-66
2023/09/12 00:11:02;;;;;;;;;;;21.00;99.90;;;;;;5001795;28;20621;-65
2023/09/12 00:13:27;;;;;;;;;;;20.90;99.90;;;;;;4983674;28;19959;-65
2023/09/12 00:15:53;;;;;;;;;;;20.90;99.90;;;;;;5002522;28;20392;-65
2023/09/12 00:18:19;;;;;;;;;;;20.90;99.90;;;;;;4994907;28;19917;-65
2023/09/12 00:20:44;;;;;;;;;;;20.90;99.90;;;;;;5001582;28;20643;-65
2023/09/12 00:23:10;;;;;;;;;;;20.90;99.90;;;;;;4983779;28;19913;-65
2023/09/12 00:25:35;;;;;;;;;;;20.90;99.90;;;;;;5002535;28;19920;-65
2023/09/12 00:28:01;;;;;;;;;;;20.90;99.90;;;;;;5007119;28;19905;-65
2023/09/12 00:30:26;;;;;;;;;;;20.90;99.90;;;;;;5001840;28;20510;-64
2023/09/12 00:32:52;;;;;;;;;;;20.90;99.90;;;;;;4997959;28;20679;-65
2023/09/12 00:35:17;;;;;;;;;;;20.80;99.90;;;;;;4979008;28;20409;-64
2023/09/12 00:37:43;;;;;;;;;;;20.80;99.90;;;;;;5000735;28;19917;-64
2023/09/12 00:40:09;;;;;;;;;;;20.80;99.90;;;;;;5006471;28;19999;-67
2023/09/12 00:42:34;;;;;;;;;;;20.80;99.90;;;;;;4983673;28;19960;-65
2023/09/12 00:45:00;;;;;;;;;;;20.80;99.90;;;;;;5001174;28;20360;-65
2023/09/12 00:47:26;;;;;;;;;;;20.70;99.90;;;;;;4979058;28;19913;-65
2023/09/12 00:49:53;;;;;;;;;;;20.70;99.90;;;;;;4982637;28;19905;-65
2023/09/12 00:52:20;;;;;;;;;;;20.70;99.90;;;;;;4984477;28;19910;-65
2023/09/12 00:54:45;;;;;;;;;;;20.60;99.90;;;;;;5002941;28;19920;-64
2023/09/12 00:57:11;;;;;;;;;;;20.70;99.90;;;;;;5002340;28;19905;-66
2023/09/12 00:59:37;;;;;;;;;;;20.70;99.90;;;;;;5007449;28;20431;-65
2023/09/12 01:02:02;;;;;;;;;;;20.60;99.90;;;;;;4979752;28;20598;-64
2023/09/12 01:04:28;;;;;;;;;;;20.60;99.90;;;;;;5001326;28;20004;-65
2023/09/12 01:06:54;;;;;;;;;;;20.60;99.90;;;;;;5003314;28;19909;-65
2023/09/12 01:09:20;;;;;;;;;;;20.60;99.90;;;;;;5006681;28;19924;-65
2023/09/12 01:11:46;;;;;;;;;;;20.60;99.90;;;;;;4998324;28;20446;-64
2023/09/12 01:14:11;;;;;;;;;;;20.60;99.90;;;;;;5002623;28;19909;-65
2023/09/12 01:16:37;;;;;;;;;;;20.60;99.90;;;;;;5001875;28;19913;-64
2023/09/12 01:19:03;;;;;;;;;;;20.60;99.90;;;;;;5001702;28;20335;-65
2023/09/12 01:21:43;;;;;;;;;;;20.60;99.90;;;;;;5000723;28;19913;-65
2023/09/12 01:24:24;;;;;;;;;;;20.60;99.90;;;;;;4997060;28;19959;-66
2023/09/12 01:26:49;;;;;;;;;;;20.60;99.90;;;;;;4993708;28;19913;-65
2023/09/12 01:29:15;;;;;;;;;;;20.60;99.90;;;;;;5000440;28;19925;-64
2023/09/12 01:31:42;;;;;;;;;;;20.50;99.90;;;;;;4999576;28;19909;-65
2023/09/12 01:34:09;;;;;;;;;;;20.60;99.90;;;;;;4999963;28;20016;-65
2023/09/12 01:36:35;;;;;;;;;;;20.50;99.90;;;;;;4999468;28;20387;-64
2023/09/12 01:39:00;;;;;;;;;;;20.40;99.90;;;;;;4982878;28;19906;-64
2023/09/12 01:41:28;;;;;;;;;;;20.30;99.90;;;;;;4996145;28;20397;-65
2023/09/12 01:43:54;;;;;;;;;;;20.20;99.90;;;;;;5004448;28;20024;-64
2023/09/12 01:46:21;;;;;;;;;;;20.20;99.90;;;;;;4995569;28;20004;-65
2023/09/12 01:48:50;;;;;;;;;;;20.20;99.90;;;;;;5000514;28;19919;-65
2023/09/12 01:51:16;;;;;;;;;;;20.20;99.90;;;;;;4999884;28;19964;-65
2023/09/12 01:53:44;;;;;;;;;;;20.20;99.90;;;;;;4993975;28;19948;-66
2023/09/12 01:56:11;;;;;;;;;;;20.10;99.90;;;;;;5000559;28;20418;-64
2023/09/12 01:58:36;;;;;;;;;;;20.10;99.90;;;;;;5000082;28;20035;-64
2023/09/12 02:01:02;;;;;;;;;;;20.10;99.90;;;;;;4995598;28;19997;-65
2023/09/12 02:03:28;;;;;;;;;;;20.00;99.90;;;;;;4999703;28;19924;-65
2023/09/12 02:05:53;;;;;;;;;;;20.00;99.90;;;;;;4996452;28;20300;-65
2023/09/12 02:08:19;;;;;;;;;;;20.00;99.90;;;;;;4998725;28;19952;-65
2023/09/12 02:10:44;;;;;;;;;;;20.00;99.90;;;;;;4994535;28;21257;-65
2023/09/12 02:13:10;;;;;;;;;;;20.00;99.90;;;;;;4985504;28;19905;-66
2023/09/12 02:15:35;;;;;;;;;;;20.00;99.90;;;;;;5002206;28;20502;-65
2023/09/12 02:18:01;;;;;;;;;;;20.00;99.90;;;;;;4977433;28;20759;-65
2023/09/12 02:20:26;;;;;;;;;;;20.00;99.90;;;;;;4981936;28;20494;-64
2023/09/12 02:22:52;;;;;;;;;;;19.90;99.90;;;;;;4979544;28;19920;-65
2023/09/12 02:25:18;;;;;;;;;;;19.90;99.90;;;;;;4977564;28;19920;-65
2023/09/12 02:27:43;;;;;;;;;;;19.90;99.90;;;;;;4999412;28;19908;-66
2023/09/12 02:30:09;;;;;;;;;;;19.90;99.90;;;;;;5003839;28;19905;-65
2023/09/12 02:32:34;;;;;;;;;;;19.90;99.90;;;;;;4981909;28;19913;-65
2023/09/12 02:35:00;;;;;;;;;;;19.90;99.90;;;;;;4999980;28;19916;-65
2023/09/12 02:37:26;;;;;;;;;;;19.90;99.90;;;;;;4995876;28;19915;-65
2023/09/12 02:39:51;;;;;;;;;;;19.90;99.90;;;;;;5000058;28;20356;-64
2023/09/12 02:42:17;;;;;;;;;;;19.90;99.90;;;;;;4985883;28;19921;-65
2023/09/12 02:44:42;;;;;;;;;;;19.90;99.90;;;;;;4999694;28;19912;-64
2023/09/12 02:47:08;;;;;;;;;;;19.90;99.90;;;;;;4997815;28;19913;-65
2023/09/12 02:49:33;;;;;;;;;;;19.90;99.90;;;;;;4982275;28;19910;-65
2023/09/12 02:51:59;;;;;;;;;;;19.90;99.90;;;;;;4995003;28;19921;-65
2023/09/12 02:54:24;;;;;;;;;;;19.90;99.90;;;;;;4999149;28;20361;-64
2023/09/12 02:56:50;;;;;;;;;;;19.90;99.90;;;;;;5002092;28;19916;-65
2023/09/12 02:59:15;;;;;;;;;;;19.90;99.90;;;;;;4998859;28;19913;-65
2023/09/12 03:01:41;;;;;;;;;;;19.90;99.90;;;;;;5007448;28;19967;-66
2023/09/12 03:04:06;;;;;;;;;;;19.90;99.90;;;;;;5005321;28;19989;-64
2023/09/12 03:06:32;;;;;;;;;;;19.80;99.90;;;;;;5003128;28;19910;-65
2023/09/12 03:08:58;;;;;;;;;;;19.80;99.90;;;;;;5007567;28;20321;-66
2023/09/12 03:11:26;;;;;;;;;;;19.70;99.90;;;;;;5004907;28;20385;-65
2023/09/12 03:13:51;;;;;;;;;;;19.70;99.90;;;;;;5001581;28;19915;-65
2023/09/12 03:16:17;;;;;;;;;;;19.70;99.90;;;;;;5003189;28;20356;-65
2023/09/12 03:18:42;;;;;;;;;;;19.70;99.90;;;;;;5003160;28;20544;-65
2023/09/12 03:21:08;;;;;;;;;;;19.70;99.90;;;;;;5001100;28;19931;-66
2023/09/12 03:23:33;;;;;;;;;;;19.70;99.90;;;;;;4984835;28;20590;-65
2023/09/12 03:26:03;;;;;;;;;;;19.60;99.90;;;;;;4986243;28;20339;-65
2023/09/12 03:28:29;;;;;;;;;;;19.60;99.90;;;;;;5004639;28;19911;-65
2023/09/12 03:31:03;;;;;;;;;;;19.60;99.90;;;;;;5000812;28;20923;-64
2023/09/12 03:33:28;;;;;;;;;;;19.60;99.90;;;;;;5002860;28;19968;-65
2023/09/12 03:35:54;;;;;;;;;;;19.60;99.90;;;;;;5001448;28;19905;-64
2023/09/12 03:38:19;;;;;;;;;;;19.60;99.90;;;;;;5002111;28;19909;-64
2023/09/12 03:40:45;;;;;;;;;;;19.50;99.90;;;;;;4997922;28;19913;-64
2023/09/12 03:43:10;;;;;;;;;;;19.50;99.90;;;;;;5001473;28;19919;-65
2023/09/12 03:45:37;;;;;;;;;;;19.40;99.90;;;;;;4985465;28;20036;-64
2023/09/12 03:48:03;;;;;;;;;;;19.40;99.90;;;;;;5002731;28;19917;-65
2023/09/12 03:50:28;;;;;;;;;;;19.40;99.90;;;;;;5001390;28;19910;-65
2023/09/12 03:52:54;;;;;;;;;;;19.30;99.90;;;;;;5001503;28;19905;-65
2023/09/12 03:55:19;;;;;;;;;;;19.30;99.90;;;;;;4983506;28;19949;-66
2023/09/12 03:57:45;;;;;;;;;;;19.30;99.90;;;;;;4997899;28;21269;-65
2023/09/12 04:00:11;;;;;;;;;;;19.30;99.90;;;;;;5003093;28;19909;-65
2023/09/12 04:02:36;;;;;;;;;;;19.30;99.90;;;;;;5002695;28;20544;-64
2023/09/12 04:05:02;;;;;;;;;;;19.30;99.90;;;;;;5001278;28;19909;-64
2023/09/12 04:07:27;;;;;;;;;;;19.30;99.90;;;;;;5000900;28;19919;-65
2023/09/12 04:09:53;;;;;;;;;;;19.30;99.90;;;;;;4997893;28;20008;-65
2023/09/12 04:12:18;;;;;;;;;;;19.20;99.90;;;;;;5001409;28;20015;-64
2023/09/12 04:14:44;;;;;;;;;;;19.20;99.90;;;;;;5007423;28;19909;-64
2023/09/12 04:17:10;;;;;;;;;;;19.20;99.90;;;;;;4996823;28;19905;-66
2023/09/12 04:19:36;;;;;;;;;;;19.20;99.90;;;;;;5006571;28;20249;-66
2023/09/12 04:22:01;;;;;;;;;;;19.10;99.90;;;;;;5001756;28;19909;-65
2023/09/12 04:24:27;;;;;;;;;;;19.10;99.90;;;;;;4983605;28;20371;-65
2023/09/12 04:26:53;;;;;;;;;;;19.10;99.90;;;;;;4997223;28;20031;-65
2023/09/12 04:29:19;;;;;;;;;;;19.00;99.90;;;;;;5001402;28;19914;-72
2023/09/12 04:31:44;;;;;;;;;;;19.00;99.90;;;;;;5002658;28;19909;-72
2023/09/12 04:34:10;;;;;;;;;;;19.00;99.90;;;;;;5002486;28;19944;-72
2023/09/12 04:36:35;;;;;;;;;;;19.00;99.90;;;;;;5001986;28;19963;-70
2023/09/12 04:39:01;;;;;;;;;;;19.10;99.90;;;;;;5003444;28;19920;-73
2023/09/12 04:41:26;;;;;;;;;;;19.10;99.90;;;;;;4995703;28;19936;-73
2023/09/12 04:43:52;;;;;;;;;;;19.10;99.90;;;;;;4999744;28;19913;-74
2023/09/12 04:46:17;;;;;;;;;;;19.10;99.90;;;;;;4996508;28;20569;-73
2023/09/12 04:48:43;;;;;;;;;;;19.10;99.90;;;;;;5001560;28;19908;-74
2023/09/12 04:51:09;;;;;;;;;;;19.10;99.90;;;;;;5002557;28;19912;-74
2023/09/12 04:53:35;;;;;;;;;;;19.20;99.90;;;;;;4982383;28;19936;-74
2023/09/12 04:56:01;;;;;;;;;;;19.30;99.90;;;;;;5001754;28;20305;-74
2023/09/12 04:58:26;;;;;;;;;;;19.40;99.90;;;;;;5001544;28;19906;-73
2023/09/12 05:00:53;;;;;;;;;;;19.40;99.90;;;;;;5001068;28;20611;-71
2023/09/12 05:03:19;;;;;;;;;;;19.60;99.90;;;;;;4978064;28;19944;-70
2023/09/12 05:05:45;;;;;;;;;;;19.70;99.90;;;;;;4983754;28;19905;-70
2023/09/12 05:08:10;;;;;;;;;;;20.00;99.90;;;;;;4999624;28;19915;-74
2023/09/12 05:10:38;;;;;;;;;;;20.40;99.90;;;;;;5002460;28;20555;-70
2023/09/12 05:13:04;;;;;;;;;;;20.70;99.90;;;;;;5005085;28;19925;-75
2023/09/12 05:15:30;;;;;;;;;;;20.90;99.90;;;;;;4997352;28;20492;-72
2023/09/12 05:17:55;;;;;;;;;;;21.10;99.90;;;;;;5000634;28;19917;-71
2023/09/12 05:20:21;;;;;;;;;;;21.50;99.90;;;;;;5000488;28;20407;-72
2023/09/12 05:22:46;;;;;;;;;;;21.70;99.90;;;;;;4999970;28;20360;-71
2023/09/12 05:25:12;;;;;;;;;;;21.90;99.90;;;;;;5000162;28;20479;-64
2023/09/12 05:27:37;;;;;;;;;;;22.10;99.90;;;;;;4998770;28;20004;-65
2023/09/12 05:30:03;;;;;;;;;;;22.30;99.90;;;;;;4985201;28;20376;-64
2023/09/12 05:32:29;;;;;;;;;;;22.50;99.90;;;;;;5000814;28;20292;-64
2023/09/12 05:34:54;;;;;;;;;;;22.80;99.90;;;;;;4998405;28;19909;-64
2023/09/12 05:37:20;;;;;;;;;;;23.10;99.90;;;;;;4999323;28;20356;-63
2023/09/12 05:39:46;;;;;;;;;;;23.40;99.90;;;;;;4999899;28;19940;-65
2023/09/12 05:42:12;;;;;;;;;;;23.40;99.90;;;;;;5001301;28;19956;-64
2023/09/12 05:44:37;;;;;;;;;;;23.40;99.90;;;;;;4983157;28;19917;-64
2023/09/12 05:47:03;;;;;;;;;;;23.40;99.90;;;;;;5000364;28;19905;-64
2023/09/12 05:49:29;;;;;;;;;;;23.70;99.90;;;;;;4999187;28;20693;-63
2023/09/12 05:51:54;;;;;;;;;;;23.90;99.90;;;;;;4996559;28;19953;-64
2023/09/12 05:54:20;;;;;;;;;;;24.30;99.90;;;;;;4997508;28;19909;-63
2023/09/12 05:56:47;;;;;;;;;;;24.70;99.90;;;;;;4996039;28;19920;-64
2023/09/12 05:59:13;;;;;;;;;;;24.80;99.90;;;;;;4980440;28;19905;-64
2023/09/12 06:01:39;;;;;;;;;;;25.30;99.90;;;;;;5000071;28;19970;-65
2023/09/12 06:04:04;;;;;;;;;;;25.30;99.90;;;;;;4998969;28;19913;-63
2023/09/12 06:06:30;;;;;;;;;;;25.20;99.90;;;;;;4998776;28;19909;-62
2023/09/12 06:08:56;;;;;;;;;;;25.80;99.90;;;;;;5002489;28;20340;-64
2023/09/12 06:11:22;;;;;;;;;;;26.50;99.90;;;;;;5000080;28;19905;-64
2023/09/12 06:13:47;;;;;;;;;;;26.60;99.90;;;;;;4999062;28;20015;-63
2023/09/12 06:16:13;;;;;;;;;;;26.80;99.50;;;;;;4997087;28;19909;-64
2023/09/12 06:18:38;;;;;;;;;;;27.00;99.50;;;;;;5001066;28;20023;-63
2023/09/12 06:21:07;;;;;;;;;;;27.50;98.70;;;;;;5000276;28;20368;-63
2023/09/12 06:23:32;;;;;;;;;;;27.40;98.50;;;;;;4999091;28;20288;-62
2023/09/12 06:25:58;;;;;;;;;;;27.40;98.30;;;;;;4999803;28;19913;-63
2023/09/12 06:28:24;;;;;;;;;;;27.30;97.80;;;;;;5000286;28;20008;-64
2023/09/12 06:30:50;;;;;;;;;;;26.70;98.00;;;;;;4999862;28;19909;-64
2023/09/12 06:33:15;;;;;;;;;;;27.00;98.10;;;;;;4998877;28;20388;-63
2023/09/12 06:35:41;;;;;;;;;;;27.80;97.70;;;;;;5003827;28;19967;-64
2023/09/12 06:38:06;;;;;;;;;;;28.20;97.00;;;;;;5003360;28;19920;-63
2023/09/12 06:40:32;;;;;;;;;;;27.90;96.50;;;;;;4998684;28;19996;-63
2023/09/12 06:42:58;;;;;;;;;;;28.40;96.20;;;;;;5004050;28;19944;-63
2023/09/12 06:45:23;;;;;;;;;;;29.00;95.60;;;;;;4984314;28;20065;-65
2023/09/12 06:47:49;;;;;;;;;;;28.60;95.40;;;;;;4997598;28;19916;-64
2023/09/12 06:50:14;;;;;;;;;;;29.00;95.00;;;;;;5002725;28;19908;-63
2023/09/12 06:52:40;;;;;;;;;;;28.70;95.40;;;;;;5000159;28;19909;-66
2023/09/12 06:55:07;;;;;;;;;;;29.80;94.40;;;;;;5002755;28;20787;-64
2023/09/12 06:57:32;;;;;;;;;;;30.40;93.50;;;;;;5002995;28;20276;-64
2023/09/12 06:59:58;;;;;;;;;;;30.60;92.50;;;;;;5003466;28;19975;-63
2023/09/12 07:02:23;;;;;;;;;;;30.70;92.00;;;;;;5003366;28;19913;-65
2023/09/12 07:04:49;;;;;;;;;;;30.30;92.10;;;;;;5002402;28;19924;-63
2023/09/12 07:07:14;;;;;;;;;;;31.70;91.00;;;;;;5003081;28;21392;-64
2023/09/12 07:09:40;;;;;;;;;;;31.80;90.20;;;;;;5002929;28;19927;-64
2023/09/12 07:12:06;;;;;;;;;;;31.80;90.00;;;;;;5004674;28;20054;-64
2023/09/12 07:14:31;;;;;;;;;;;33.20;87.60;;;;;;5003376;28;19905;-64
2023/09/12 07:16:57;;;;;;;;;;;32.70;86.80;;;;;;4998028;28;19905;-64
2023/09/12 07:19:24;;;;;;;;;;;33.50;85.10;;;;;;5003821;28;19910;-64
2023/09/12 07:21:49;;;;;;;;;;;33.40;84.70;;;;;;5002662;28;20431;-64
2023/09/12 07:24:15;;;;;;;;;;;33.30;83.20;;;;;;4997579;28;19933;-66
2023/09/12 07:26:40;;;;;;;;;;;32.20;84.10;;;;;;5005255;28;19920;-66
2023/09/12 07:29:06;;;;;;;;;;;32.50;84.10;;;;;;5004571;28;21317;-65
2023/09/12 07:31:31;;;;;;;;;;;33.40;83.50;;;;;;5003462;28;20319;-64
2023/09/12 07:33:57;;;;;;;;;;;33.80;82.00;;;;;;4997165;28;19929;-63
2023/09/12 07:36:22;;;;;;;;;;;35.30;79.70;;;;;;5002269;28;19956;-63
2023/09/12 07:38:48;;;;;;;;;;;35.10;78.10;;;;;;4984978;28;19913;-64
2023/09/12 07:41:13;;;;;;;;;;;35.30;77.00;;;;;;4999206;28;20310;-64
2023/09/12 07:43:40;;;;;;;;;;;36.50;76.00;;;;;;5002034;28;19962;-63
2023/09/12 07:46:05;;;;;;;;;;;37.50;73.90;;;;;;4984651;28;19910;-63
2023/09/12 07:48:32;;;;;;;;;;;37.70;71.40;;;;;;4999392;28;19931;-63
2023/09/12 07:50:57;;;;;;;;;;;39.00;69.50;;;;;;5001023;28;19905;-63
2023/09/12 07:53:23;;;;;;;;;;;36.90;69.10;;;;;;4999166;28;19909;-63
2023/09/12 07:55:49;;;;;;;;;;;35.70;71.90;;;;;;5001196;28;19906;-65
2023/09/12 07:58:15;;;;;;;;;;;36.50;71.60;;;;;;5003527;28;20009;-64
2023/09/12 08:00:40;;;;;;;;;;;37.00;70.50;;;;;;5001856;28;19915;-71
2023/09/12 08:03:06;;;;;;;;;;;37.00;70.00;;;;;;5002959;28;19921;-71
2023/09/12 08:05:31;;;;;;;;;;;35.90;71.20;;;;;;4996932;28;20271;-71
2023/09/12 08:07:57;;;;;;;;;;;36.70;71.40;;;;;;5004363;28;20418;-70
2023/09/12 08:10:23;;;;;;;;;;;37.70;69.20;;;;;;5000318;28;20387;-71
2023/09/12 08:12:48;;;;;;;;;;;38.80;67.70;;;;;;5001414;28;20010;-71
2023/09/12 08:15:14;;;;;;;;;;;38.00;67.20;;;;;;4996733;28;19916;-71
2023/09/12 08:17:39;;;;;;;;;;;37.70;67.40;;;;;;4990570;28;20371;-71
2023/09/12 08:20:06;;;;;;;;;;;36.50;69.10;;;;;;4998482;28;19913;-71
2023/09/12 08:22:31;;;;;;;;;;;38.50;67.90;;;;;;5002587;28;19916;-71
2023/09/12 08:24:57;;;;;;;;;;;38.20;67.20;;;;;;5000966;28;20539;-70
2023/09/12 08:27:23;;;;;;;;;;;38.00;66.60;;;;;;5002317;28;20441;-70
2023/09/12 08:29:49;;;;;;;;;;;35.80;69.40;;;;;;4998630;28;20293;-71
2023/09/12 08:32:14;;;;;;;;;;;36.60;68.80;;;;;;5002838;28;19909;-71
2023/09/12 08:34:40;;;;;;;;;;;34.60;70.10;;;;;;4983993;28;19979;-71
2023/09/12 08:37:05;;;;;;;;;;;34.90;70.50;;;;;;4985215;28;19967;-71
2023/09/12 08:39:39;;;;;;;;;;;34.00;70.70;;;;;;5001904;28;20946;-70
2023/09/12 08:42:06;;;;;;;;;;;33.50;71.70;;;;;;4985220;28;19920;-71
2023/09/12 08:44:31;;;;;;;;;;;33.90;72.50;;;;;;5001825;28;19913;-71
2023/09/12 08:46:57;;;;;;;;;;;33.60;72.10;;;;;;4981198;28;19905;-70
2023/09/12 08:49:23;;;;;;;;;;;31.50;75.30;;;;;;5001983;28;19909;-71
2023/09/12 08:51:48;;;;;;;;;;;32.20;75.70;;;;;;4997167;28;19911;-71
2023/09/12 08:54:14;;;;;;;;;;;33.10;73.70;;;;;;5002443;28;19909;-71
2023/09/12 08:56:42;;;;;;;;;;;34.80;72.30;;;;;;5002624;28;20603;-71
2023/09/12 08:59:08;;;;;;;;;;;34.00;72.20;;;;;;4999060;28;19967;-70
2023/09/12 09:01:34;;;;;;;;;;;34.90;71.90;;;;;;5002892;28;19925;-71
2023/09/12 09:04:02;;;;;;;;;;;34.30;71.50;;;;;;4997151;28;19936;-71
2023/09/12 09:06:29;;;;;;;;;;;34.20;71.80;;;;;;5003232;28;19905;-71
2023/09/12 09:08:55;;;;;;;;;;;34.50;71.20;;;;;;4999324;28;20276;-71
2023/09/12 09:11:21;;;;;;;;;;;34.70;70.90;;;;;;5002431;28;19983;-72
2023/09/12 09:13:48;;;;;;;;;;;35.60;70.70;;;;;;5002466;28;20344;-73
2023/09/12 09:16:14;;;;;;;;;;;35.90;69.40;;;;;;5003447;28;19916;-72
2023/09/12 09:18:53;;;;;;;;;;;36.30;69.10;;;;;;5002984;28;20399;-72
2023/09/12 09:21:25;;;;;;;;;;;35.50;70.30;;;;;;5002116;28;19914;-72
2023/09/12 09:23:54;;;;;;;;;;;36.20;70.20;;;;;;5000684;28;19909;-71
2023/09/12 09:26:20;;;;;;;;;;;37.30;68.90;;;;;;4997567;28;19909;-73
2023/09/12 09:29:00;;;;;;;;;;;37.30;68.00;;;;;;5002301;28;19914;-71
2023/09/12 09:31:25;;;;;;;;;;;36.70;67.80;;;;;;5002739;28;19905;-72
2023/09/12 09:33:52;;;;;;;;;;;35.80;69.30;;;;;;4997896;28;20412;-72
2023/09/12 09:36:17;;;;;;;;;;;36.00;70.20;;;;;;5000470;28;19935;-72
2023/09/12 09:38:43;;;;;;;;;;;36.10;69.70;;;;;;5002528;28;20024;-71
2023/09/12 09:41:09;;;;;;;;;;;36.60;69.70;;;;;;5003471;28;19996;-72
2023/09/12 09:43:34;;;;;;;;;;;37.70;68.10;;;;;;5002474;28;19910;-73
2023/09/12 09:46:00;;;;;;;;;;;38.20;66.50;;;;;;4995345;28;19932;-73
2023/09/12 09:48:26;;;;;;;;;;;36.80;68.00;;;;;;5002677;28;20250;-73
2023/09/12 09:50:52;;;;;;;;;;;37.40;67.80;;;;;;4998749;28;20448;-73
2023/09/12 09:53:25;;;;;;;;;;;38.00;66.30;;;;;;4984241;28;19906;-72
2023/09/12 09:55:51;;;;;;;;;;;36.40;67.40;;;;;;4996583;28;19910;-73
2023/09/12 09:58:17;;;;;;;;;;;37.40;67.10;;;;;;5001233;28;20583;-73
2023/09/12 10:00:42;;;;;;;;;;;38.60;67.10;;;;;;5002117;28;19905;-75
2023/09/12 10:03:10;;;;;;;;;;;39.20;66.10;;;;;;4984932;28;19918;-73
2023/09/12 10:05:37;;;;;;;;;;;40.40;64.10;;;;;;5004065;28;19992;-74
2023/09/12 10:08:03;;;;;;;;;;;40.20;63.40;;;;;;5006946;28;19910;-74
2023/09/12 10:10:29;;;;;;;;;;;40.70;62.60;;;;;;5005578;28;19933;-75
2023/09/12 10:12:58;;;;;;;;;;;40.60;62.80;;;;;;5001774;28;20348;-74
2023/09/12 10:15:28;;;;;;;;;;;40.70;62.00;;;;;;5007117;28;19905;-74
2023/09/12 10:17:56;;;;;;;;;;;39.30;62.90;;;;;;5000885;28;19960;-73
2023/09/12 10:20:24;;;;;;;;;;;38.30;63.60;;;;;;5006408;28;20530;-73
2023/09/12 10:23:11;;;;;;;;;;;38.50;64.00;;;;;;5005499;28;19913;-75
2023/09/12 10:25:37;;;;;;;;;;;39.40;63.80;;;;;;4989404;28;20444;-73
2023/09/12 10:28:06;;;;;;;;;;;40.20;61.90;;;;;;5005449;28;19953;-75
2023/09/12 10:30:32;;;;;;;;;;;37.80;63.30;;;;;;5006433;28;19996;-74
2023/09/12 10:32:58;;;;;;;;;;;36.70;64.50;;;;;;5005998;28;20365;-74
2023/09/12 10:35:24;;;;;;;;;;;38.10;64.70;;;;;;5001186;28;19915;-74
2023/09/12 10:37:50;;;;;;;;;;;38.90;62.80;;;;;;4987834;28;19905;-74
2023/09/12 10:40:17;;;;;;;;;;;38.70;62.80;;;;;;5002659;28;19921;-73
2023/09/12 10:42:43;;;;;;;;;;;37.90;63.40;;;;;;5005308;28;20415;-73
2023/09/12 10:45:09;;;;;;;;;;;36.90;63.90;;;;;;5004363;28;19995;-73
2023/09/12 10:47:35;;;;;;;;;;;36.60;65.00;;;;;;5002020;28;19905;-73
2023/09/12 10:50:01;;;;;;;;;;;37.20;64.70;;;;;;5004513;28;19909;-73
2023/09/12 10:52:28;;;;;;;;;;;38.90;62.30;;;;;;5001496;28;19999;-73
2023/09/12 10:54:54;;;;;;;;;;;37.90;62.10;;;;;;5005893;28;20381;-74
2023/09/12 10:57:20;;;;;;;;;;;38.20;62.40;;;;;;5000167;28;20091;-74
2023/09/12 11:00:02;;;;;;;;;;;35.80;64.60;;;;;;4987297;28;20000;-73
2023/09/12 11:02:35;;;;;;;;;;;34.80;66.40;;;;;;4998964;28;19917;-74
2023/09/12 11:05:05;;;;;;;;;;;33.70;67.70;;;;;;4987827;28;20250;-74
2023/09/12 11:07:43;;;;;;;;;;;33.70;68.10;;;;;;5001671;28;19910;-75
2023/09/12 11:10:15;;;;;;;;;;;32.40;69.20;;;;;;5006015;28;19905;-73
2023/09/12 11:12:42;;;;;;;;;;;31.90;70.20;;;;;;5002789;28;19996;-73
2023/09/12 11:15:11;;;;;;;;;;;31.90;70.60;;;;;;5005665;28;20419;-73
2023/09/12 11:17:37;;;;;;;;;;;31.60;70.80;;;;;;5001385;28;19963;-74
2023/09/12 11:20:13;;;;;;;;;;;31.50;71.90;;;;;;5003744;28;19913;-74
2023/09/12 11:22:47;;;;;;;;;;;31.40;71.90;;;;;;4982495;28;19933;-74
2023/09/12 11:25:22;;;;;;;;;;;31.70;71.40;;;;;;5002922;28;19909;-74
2023/09/12 11:27:51;;;;;;;;;;;31.70;70.40;;;;;;5004037;28;19917;-73
2023/09/12 11:30:17;;;;;;;;;;;32.00;70.40;;;;;;5003774;28;19999;-74
2023/09/12 11:32:44;;;;;;;;;;;32.20;69.70;;;;;;5000118;28;19931;-73
2023/09/12 11:35:10;;;;;;;;;;;32.10;69.20;;;;;;5004907;28;20322;-73
2023/09/12 11:37:37;;;;;;;;;;;31.70;69.50;;;;;;5003091;28;19906;-72
2023/09/12 11:40:22;;;;;;;;;;;31.90;68.70;;;;;;4982604;28;19909;-72
2023/09/12 11:42:49;;;;;;;;;;;32.10;69.00;;;;;;5001762;28;19932;-72
2023/09/12 11:45:18;;;;;;;;;;;32.30;69.80;;;;;;5004103;28;21084;-72
2023/09/12 11:47:44;;;;;;;;;;;32.00;70.00;;;;;;5002651;28;19963;-73
2023/09/12 11:50:45;;;;;;;;;;;32.00;70.00;;;;;;4999654;28;19920;-72
2023/09/12 11:53:11;;;;;;;;;;;31.50;70.40;;;;;;4925251;29;20574;-72
2023/09/12 11:55:42;;;;;;;;;;;31.30;71.40;;;;;;4983214;28;20043;-73
2023/09/12 11:58:08;;;;;;;;;;;31.50;70.70;;;;;;5003345;28;19929;-73
2023/09/12 12:00:33;;;;;;;;;;;31.60;69.90;;;;;;5003960;28;20308;-73
2023/09/12 12:02:59;;;;;;;;;;;31.30;70.30;;;;;;5004066;28;19940;-73
2023/09/12 12:05:24;;;;;;;;;;;31.70;69.50;;;;;;5004742;28;19940;-73
2023/09/12 12:07:50;;;;;;;;;;;31.70;69.00;;;;;;4999704;28;19916;-73
2023/09/12 12:10:16;;;;;;;;;;;31.70;68.90;;;;;;5007018;28;20048;-74
2023/09/12 12:12:43;;;;;;;;;;;32.00;68.20;;;;;;5002271;28;20465;-73
2023/09/12 12:15:10;;;;;;;;;;;32.20;67.90;;;;;;5005190;28;20783;-73
2023/09/12 12:17:37;;;;;;;;;;;32.50;68.20;;;;;;4986338;28;19910;-73
2023/09/12 12:20:07;;;;;;;;;;;32.60;67.00;;;;;;5000046;28;19996;-73
2023/09/12 12:22:32;;;;;;;;;;;31.80;67.10;;;;;;4985809;28;20365;-73
2023/09/12 12:25:05;;;;;;;;;;;31.50;68.30;;;;;;4998412;28;19925;-74
2023/09/12 12:27:32;;;;;;;;;;;31.60;69.20;;;;;;5003296;28;20028;-73
2023/09/12 12:29:57;;;;;;;;;;;31.70;68.00;;;;;;5003059;28;19909;-73
2023/09/12 12:32:23;;;;;;;;;;;32.00;67.30;;;;;;4999231;28;20298;-73
2023/09/12 12:34:49;;;;;;;;;;;32.10;66.90;;;;;;5003663;28;20267;-73
2023/09/12 12:37:15;;;;;;;;;;;31.80;66.50;;;;;;5003653;28;20746;-73
2023/09/12 12:39:43;;;;;;;;;;;31.90;67.70;;;;;;5003222;28;19935;-65
2023/09/12 12:42:09;;;;;;;;;;;31.60;68.40;;;;;;5003229;28;19913;-72
2023/09/12 12:44:36;;;;;;;;;;;31.50;68.60;;;;;;4997260;28;19916;-71
2023/09/12 12:47:04;;;;;;;;;;;31.50;68.00;;;;;;5000818;28;20379;-72
2023/09/12 12:49:35;;;;;;;;;;;31.60;68.40;;;;;;4998801;28;19905;-72
2023/09/12 12:52:02;;;;;;;;;;;31.60;66.30;;;;;;5002737;28;19914;-72
2023/09/12 12:54:30;;;;;;;;;;;31.80;65.60;;;;;;5003387;28;20100;-72
2023/09/12 12:56:56;;;;;;;;;;;32.00;65.00;;;;;;4998656;28;19905;-72
2023/09/12 12:59:22;;;;;;;;;;;32.00;65.40;;;;;;5007219;28;19909;-72
2023/09/12 13:01:48;;;;;;;;;;;31.80;63.30;;;;;;4982089;28;19913;-72
2023/09/12 13:04:13;;;;;;;;;;;31.70;63.60;;;;;;5004100;28;19928;-73
2023/09/12 13:06:40;;;;;;;;;;;31.80;63.40;;;;;;5003214;28;19905;-72
2023/09/12 13:09:06;;;;;;;;;;;32.10;63.70;;;;;;4980755;28;20340;-72
2023/09/12 13:11:35;;;;;;;;;;;32.20;65.40;;;;;;5002609;28;19920;-72
2023/09/12 13:14:01;;;;;;;;;;;31.80;65.70;;;;;;5002856;28;19917;-72
2023/09/12 13:16:26;;;;;;;;;;;31.80;67.00;;;;;;5003353;28;19909;-72
2023/09/12 13:18:52;;;;;;;;;;;31.70;67.40;;;;;;4999883;28;20384;-73
2023/09/12 13:21:17;;;;;;;;;;;31.30;68.40;;;;;;5000564;28;19909;-71
2023/09/12 13:23:43;;;;;;;;;;;31.10;68.20;;;;;;5002821;28;19920;-74
2023/09/12 13:26:09;;;;;;;;;;;31.00;68.60;;;;;;4996742;28;20862;-73
2023/09/12 13:28:35;;;;;;;;;;;31.10;68.80;;;;;;5002684;28;19905;-74
2023/09/12 13:31:00;;;;;;;;;;;31.40;68.70;;;;;;5001704;28;19909;-73
2023/09/12 13:33:26;;;;;;;;;;;31.30;69.20;;;;;;5002237;28;19913;-72
2023/09/12 13:35:52;;;;;;;;;;;31.50;69.00;;;;;;4980142;28;19913;-76
2023/09/12 13:38:18;;;;;;;;;;;31.60;68.80;;;;;;5001558;28;19913;-74
2023/09/12 13:40:44;;;;;;;;;;;31.50;69.40;;;;;;5000528;28;19912;-73
2023/09/12 13:43:10;;;;;;;;;;;31.50;69.70;;;;;;4997645;28;20436;-73
2023/09/12 13:45:36;;;;;;;;;;;31.20;69.50;;;;;;5000372;28;19909;-73
2023/09/12 13:48:02;;;;;;;;;;;31.20;69.80;;;;;;5002254;28;19907;-73
2023/09/12 13:50:28;;;;;;;;;;;31.00;69.10;;;;;;4998532;28;19988;-74
2023/09/12 13:52:54;;;;;;;;;;;31.10;69.10;;;;;;4998923;28;19909;-73
2023/09/12 13:55:20;;;;;;;;;;;30.90;69.50;;;;;;4979888;28;19917;-71
2023/09/12 13:57:45;;;;;;;;;;;30.90;69.80;;;;;;5001726;28;19917;-73
2023/09/12 14:00:11;;;;;;;;;;;30.80;70.20;;;;;;5001958;28;19943;-75
2023/09/12 14:02:37;;;;;;;;;;;31.00;70.20;;;;;;4997255;28;19972;-76
2023/09/12 14:05:03;;;;;;;;;;;30.90;70.60;;;;;;4984371;28;19909;-73
2023/09/12 14:07:28;;;;;;;;;;;30.80;69.80;;;;;;4996357;28;19905;-74
2023/09/12 14:09:55;;;;;;;;;;;31.00;70.30;;;;;;4984539;28;19916;-74
2023/09/12 14:12:25;;;;;;;;;;;31.10;70.40;;;;;;4996104;28;20000;-73